Time;durP1;ratioP1;P1;durP2;ratioP2;P2;SDS_P1;SDS_P2;PMS_P1;PMS_P2;Temp;Humidity;BMP_temperature;BMP_pressure;BME280_temperature;BME280_humidity;BME280_pressure;Samples;Min_cycle;Max_cycle;Signal;HPM_P1;HPM_P2
2023/02/10 00:00:14;;;;;;;;;;;23.60;99.90;;;;;;5011583;28;19917;-62
2023/02/10 00:02:41;;;;;;;;;;;23.60;99.90;;;;;;5011637;28;20436;-61
2023/02/10 00:05:07;;;;;;;;;;;24.20;99.90;;;;;;5011741;28;19929;-61
2023/02/10 00:07:34;;;;;;;;;;;24.10;99.90;;;;;;5011458;28;19975;-61
2023/02/10 00:10:01;;;;;;;;;;;24.20;99.90;;;;;;5010919;28;20341;-61
2023/02/10 00:12:31;;;;;;;;;;;24.10;99.90;;;;;;5011851;28;20016;-61
2023/02/10 00:14:57;;;;;;;;;;;24.20;99.90;;;;;;5011739;28;20096;-61
2023/02/10 00:17:24;;;;;;;;;;;24.20;99.90;;;;;;5011307;28;19948;-61
2023/02/10 00:19:50;;;;;;;;;;;24.20;99.90;;;;;;5011386;28;19917;-63
2023/02/10 00:22:17;;;;;;;;;;;24.20;99.90;;;;;;5011573;28;19914;-62
2023/02/10 00:24:44;;;;;;;;;;;24.20;99.90;;;;;;5011130;28;19925;-61
2023/02/10 00:27:10;;;;;;;;;;;24.40;99.90;;;;;;5011747;28;19913;-61
2023/02/10 00:29:37;;;;;;;;;;;24.70;99.90;;;;;;5012781;28;20261;-62
2023/02/10 00:32:03;;;;;;;;;;;25.00;99.90;;;;;;5015305;28;19964;-65
2023/02/10 00:34:30;;;;;;;;;;;24.90;99.90;;;;;;5015166;28;20588;-63
2023/02/10 00:36:57;;;;;;;;;;;24.80;99.90;;;;;;5015239;28;20004;-62
2023/02/10 00:39:23;;;;;;;;;;;24.90;99.90;;;;;;5014668;28;19941;-61
2023/02/10 00:41:50;;;;;;;;;;;25.30;99.90;;;;;;5014834;28;19921;-63
2023/02/10 00:44:17;;;;;;;;;;;26.20;99.90;;;;;;5014939;28;19921;-66
2023/02/10 00:46:43;;;;;;;;;;;26.40;99.90;;;;;;5014945;28;20419;-61
2023/02/10 00:49:11;;;;;;;;;;;26.30;99.90;;;;;;5014836;28;20295;-65
2023/02/10 00:51:38;;;;;;;;;;;26.00;99.90;;;;;;5015044;28;19910;-61
2023/02/10 00:54:04;;;;;;;;;;;26.30;99.90;;;;;;5014500;28;20004;-64
2023/02/10 00:56:31;;;;;;;;;;;26.10;99.90;;;;;;5014873;28;19960;-63
2023/02/10 00:58:57;;;;;;;;;;;26.20;99.90;;;;;;5014572;28;19944;-61
2023/02/10 01:01:25;;;;;;;;;;;26.00;99.90;;;;;;5013823;28;20283;-61
2023/02/10 01:03:51;;;;;;;;;;;26.10;99.90;;;;;;5014467;28;19925;-63
2023/02/10 01:06:18;;;;;;;;;;;25.90;99.90;;;;;;5014598;28;19951;-61
2023/02/10 01:08:45;;;;;;;;;;;25.90;99.90;;;;;;5014404;28;19916;-62
2023/02/10 01:11:12;;;;;;;;;;;25.90;99.90;;;;;;5013969;28;20000;-61
2023/02/10 01:13:40;;;;;;;;;;;25.90;99.90;;;;;;5014257;28;19909;-62
2023/02/10 01:16:11;;;;;;;;;;;26.00;99.90;;;;;;5014697;28;19913;-66
2023/02/10 01:18:38;;;;;;;;;;;26.20;99.90;;;;;;5014271;28;19914;-61
2023/02/10 01:21:09;;;;;;;;;;;26.80;99.90;;;;;;5013863;28;19918;-64
2023/02/10 01:23:36;;;;;;;;;;;27.60;99.90;;;;;;5013991;28;19979;-61
2023/02/10 01:26:03;;;;;;;;;;;28.50;99.90;;;;;;5014061;28;19962;-62
2023/02/10 01:28:29;;;;;;;;;;;28.90;99.90;;;;;;5014034;28;19917;-61
2023/02/10 01:30:56;;;;;;;;;;;28.70;99.90;;;;;;4996050;28;20004;-63
2023/02/10 01:33:23;;;;;;;;;;;28.90;99.90;;;;;;5013822;28;19960;-62
2023/02/10 01:35:49;;;;;;;;;;;29.60;99.90;;;;;;5014168;28;20012;-64
2023/02/10 01:38:16;;;;;;;;;;;29.10;99.90;;;;;;5013804;28;19913;-61
2023/02/10 01:40:43;;;;;;;;;;;29.10;99.90;;;;;;5012240;28;19932;-62
2023/02/10 01:43:16;;;;;;;;;;;28.70;99.90;;;;;;5013769;28;19909;-62
2023/02/10 01:45:43;;;;;;;;;;;28.10;99.90;;;;;;5013567;28;19910;-61
2023/02/10 01:48:10;;;;;;;;;;;27.70;99.90;;;;;;5013649;28;19913;-65
2023/02/10 01:50:50;;;;;;;;;;;27.40;99.90;;;;;;5013404;28;20288;-61
2023/02/10 01:53:17;;;;;;;;;;;27.60;99.90;;;;;;5013388;28;19909;-64
2023/02/10 01:55:46;;;;;;;;;;;28.10;99.90;;;;;;5013600;28;19978;-61
2023/02/10 01:58:14;;;;;;;;;;;28.30;99.90;;;;;;5013685;28;20276;-62
2023/02/10 02:00:41;;;;;;;;;;;28.00;99.90;;;;;;5012966;28;19924;-61
2023/02/10 02:03:08;;;;;;;;;;;27.90;99.90;;;;;;5013100;28;19932;-62
2023/02/10 02:05:38;;;;;;;;;;;27.60;99.90;;;;;;5013283;28;19925;-61
2023/02/10 02:08:16;;;;;;;;;;;27.30;99.90;;;;;;5013316;28;19954;-65
2023/02/10 02:10:49;;;;;;;;;;;27.00;99.90;;;;;;5013095;28;19909;-61
2023/02/10 02:13:28;;;;;;;;;;;26.80;99.90;;;;;;5013189;28;19914;-61
2023/02/10 02:16:03;;;;;;;;;;;26.60;99.90;;;;;;5013466;28;19953;-62
2023/02/10 02:18:42;;;;;;;;;;;26.60;99.90;;;;;;5013516;28;19913;-61
2023/02/10 02:21:23;;;;;;;;;;;26.60;99.90;;;;;;5012857;28;19916;-62
2023/02/10 02:24:02;;;;;;;;;;;27.00;99.90;;;;;;5012913;28;19933;-61
2023/02/10 02:26:46;;;;;;;;;;;27.00;99.90;;;;;;5013210;28;20044;-61
2023/02/10 02:29:48;;;;;;;;;;;27.00;99.90;;;;;;5012881;28;20016;-61
2023/02/10 02:32:21;;;;;;;;;;;27.00;99.90;;;;;;4971548;28;19914;-62
2023/02/10 02:34:51;;;;;;;;;;;27.10;99.90;;;;;;5006548;28;20054;-62
2023/02/10 02:37:29;;;;;;;;;;;27.00;99.90;;;;;;5012532;28;19909;-63
2023/02/10 02:39:57;;;;;;;;;;;27.00;99.90;;;;;;5012489;28;20001;-61
2023/02/10 02:42:25;;;;;;;;;;;26.90;99.90;;;;;;5012663;28;20268;-61
2023/02/10 02:44:54;;;;;;;;;;;26.90;99.90;;;;;;5012656;28;19922;-62
2023/02/10 02:47:31;;;;;;;;;;;26.90;99.90;;;;;;5012603;28;20388;-62
2023/02/10 02:49:59;;;;;;;;;;;26.90;99.90;;;;;;5012370;28;19917;-62
2023/02/10 02:52:46;;;;;;;;;;;26.90;99.90;;;;;;5012078;28;19909;-63
2023/02/10 02:55:22;;;;;;;;;;;26.90;99.90;;;;;;4991229;28;19968;-62
2023/02/10 02:57:52;;;;;;;;;;;26.90;99.90;;;;;;5012518;28;20008;-61
2023/02/10 03:00:22;;;;;;;;;;;26.90;99.90;;;;;;5012426;28;20265;-61
2023/02/10 03:02:49;;;;;;;;;;;26.80;99.90;;;;;;5012397;28;20392;-62
2023/02/10 03:05:21;;;;;;;;;;;26.70;99.90;;;;;;5012229;28;19928;-61
2023/02/10 03:07:47;;;;;;;;;;;26.70;99.90;;;;;;5012191;28;19956;-61
2023/02/10 03:10:14;;;;;;;;;;;26.50;99.90;;;;;;5012051;28;19909;-62
2023/02/10 03:12:41;;;;;;;;;;;26.60;99.90;;;;;;5012362;28;19921;-61
2023/02/10 03:15:07;;;;;;;;;;;26.50;99.90;;;;;;5012286;28;20120;-61
2023/02/10 03:17:34;;;;;;;;;;;26.60;99.90;;;;;;5012221;28;19913;-62
2023/02/10 03:20:01;;;;;;;;;;;26.70;99.90;;;;;;5011834;28;20020;-62
2023/02/10 03:22:27;;;;;;;;;;;26.60;99.90;;;;;;5012073;28;20409;-61
2023/02/10 03:24:54;;;;;;;;;;;26.60;99.90;;;;;;5011990;28;20046;-61
2023/02/10 03:27:21;;;;;;;;;;;26.50;99.90;;;;;;5011943;28;19957;-61
2023/02/10 03:29:49;;;;;;;;;;;26.50;99.90;;;;;;5011648;28;20280;-63
2023/02/10 03:32:16;;;;;;;;;;;26.60;99.90;;;;;;5011985;28;19909;-62
2023/02/10 03:34:43;;;;;;;;;;;26.70;99.90;;;;;;5012094;28;19917;-64
2023/02/10 03:37:10;;;;;;;;;;;26.60;99.90;;;;;;5011896;28;19910;-61
2023/02/10 03:39:36;;;;;;;;;;;26.60;99.90;;;;;;5011437;28;19909;-65
2023/02/10 03:42:03;;;;;;;;;;;26.50;99.90;;;;;;5011917;28;19913;-61
2023/02/10 03:44:30;;;;;;;;;;;26.50;99.90;;;;;;5011547;28;19917;-63
2023/02/10 03:46:56;;;;;;;;;;;26.50;99.90;;;;;;5011850;28;20292;-62
2023/02/10 03:49:23;;;;;;;;;;;26.40;99.90;;;;;;5011307;28;19918;-62
2023/02/10 03:51:50;;;;;;;;;;;26.50;99.90;;;;;;5011669;28;19916;-64
2023/02/10 03:54:16;;;;;;;;;;;26.40;99.90;;;;;;5011622;28;19971;-61
2023/02/10 03:56:43;;;;;;;;;;;26.70;99.90;;;;;;5011819;28;19909;-67
2023/02/10 03:59:10;;;;;;;;;;;26.60;99.90;;;;;;5011329;28;19952;-61
2023/02/10 04:01:36;;;;;;;;;;;26.60;99.90;;;;;;5011247;28;20364;-61
2023/02/10 04:04:03;;;;;;;;;;;26.50;99.90;;;;;;5012654;28;19958;-61
2023/02/10 04:06:30;;;;;;;;;;;26.50;99.90;;;;;;4997747;28;19914;-61
2023/02/10 04:08:56;;;;;;;;;;;26.60;99.90;;;;;;5015397;28;19990;-61
2023/02/10 04:11:23;;;;;;;;;;;26.50;99.90;;;;;;5014751;28;19910;-61
2023/02/10 04:13:50;;;;;;;;;;;26.50;99.90;;;;;;5015369;28;19910;-61
2023/02/10 04:16:19;;;;;;;;;;;26.50;99.90;;;;;;5015448;28;20422;-62
2023/02/10 04:18:46;;;;;;;;;;;26.40;99.90;;;;;;5015569;28;19913;-63
2023/02/10 04:21:13;;;;;;;;;;;26.40;99.90;;;;;;5014930;28;19989;-63
2023/02/10 04:23:40;;;;;;;;;;;26.40;99.90;;;;;;5015063;28;19929;-62
2023/02/10 04:26:06;;;;;;;;;;;26.30;99.90;;;;;;5015407;28;19964;-61
2023/02/10 04:28:33;;;;;;;;;;;26.20;99.90;;;;;;5015685;28;19917;-61
2023/02/10 04:31:00;;;;;;;;;;;26.20;99.90;;;;;;5015260;28;19913;-61
2023/02/10 04:33:27;;;;;;;;;;;26.20;99.90;;;;;;5015064;28;19956;-61
2023/02/10 04:35:54;;;;;;;;;;;26.20;99.90;;;;;;5015306;28;19921;-61
2023/02/10 04:38:21;;;;;;;;;;;26.00;99.90;;;;;;5015038;28;20387;-61
2023/02/10 04:40:47;;;;;;;;;;;26.00;99.90;;;;;;5014577;28;19972;-61
2023/02/10 04:43:14;;;;;;;;;;;26.00;99.90;;;;;;5014646;28;19953;-61
2023/02/10 04:45:41;;;;;;;;;;;26.00;99.90;;;;;;5014923;28;20041;-61
2023/02/10 04:48:08;;;;;;;;;;;26.00;99.90;;;;;;5015148;28;20016;-63
2023/02/10 04:50:36;;;;;;;;;;;26.00;99.90;;;;;;5014642;28;19932;-61
2023/02/10 04:53:03;;;;;;;;;;;26.00;99.90;;;;;;5014858;28;20276;-61
2023/02/10 04:55:30;;;;;;;;;;;26.00;99.90;;;;;;5015009;28;19913;-62
2023/02/10 04:57:57;;;;;;;;;;;26.00;99.90;;;;;;5014767;28;19910;-61
2023/02/10 05:00:23;;;;;;;;;;;26.00;99.90;;;;;;5014759;28;19920;-62
2023/02/10 05:02:50;;;;;;;;;;;26.00;99.90;;;;;;5014782;28;19929;-61
2023/02/10 05:05:17;;;;;;;;;;;26.00;99.90;;;;;;5014374;28;19940;-62
2023/02/10 05:07:43;;;;;;;;;;;26.00;99.90;;;;;;5014495;28;19936;-61
2023/02/10 05:10:10;;;;;;;;;;;26.10;99.90;;;;;;5014223;28;19909;-61
2023/02/10 05:12:37;;;;;;;;;;;26.20;99.90;;;;;;5014631;28;19913;-61
2023/02/10 05:15:04;;;;;;;;;;;26.30;99.90;;;;;;5014456;28;19917;-61
2023/02/10 05:17:31;;;;;;;;;;;26.40;99.90;;;;;;5014167;28;20730;-61
2023/02/10 05:19:57;;;;;;;;;;;26.40;99.90;;;;;;5013840;28;20008;-61
2023/02/10 05:22:29;;;;;;;;;;;26.40;99.90;;;;;;5014296;28;20000;-61
2023/02/10 05:24:56;;;;;;;;;;;26.40;99.90;;;;;;5014204;28;19983;-61
2023/02/10 05:27:23;;;;;;;;;;;26.40;99.90;;;;;;5013915;28;19944;-61
2023/02/10 05:29:50;;;;;;;;;;;26.30;99.90;;;;;;5013783;28;20274;-61
2023/02/10 05:32:17;;;;;;;;;;;26.30;99.90;;;;;;5014144;28;19916;-61
2023/02/10 05:34:44;;;;;;;;;;;26.40;99.90;;;;;;5014096;28;19934;-61
2023/02/10 05:37:10;;;;;;;;;;;26.40;99.90;;;;;;5013811;28;19918;-61
2023/02/10 05:39:37;;;;;;;;;;;26.30;99.90;;;;;;5013540;28;20257;-64
2023/02/10 05:42:04;;;;;;;;;;;26.20;99.90;;;;;;5014019;28;19916;-61
2023/02/10 05:44:31;;;;;;;;;;;26.20;99.90;;;;;;5013759;28;19928;-62
2023/02/10 05:46:58;;;;;;;;;;;26.20;99.90;;;;;;5014037;28;19909;-63
2023/02/10 05:49:25;;;;;;;;;;;26.10;99.90;;;;;;5013234;28;19921;-61
2023/02/10 05:51:52;;;;;;;;;;;26.10;99.90;;;;;;5011764;28;19914;-61
2023/02/10 05:54:19;;;;;;;;;;;26.10;99.90;;;;;;5011783;28;19922;-62
2023/02/10 05:56:46;;;;;;;;;;;26.00;99.90;;;;;;5011975;28;19924;-64
2023/02/10 05:59:14;;;;;;;;;;;26.00;99.90;;;;;;5011287;28;20677;-61
2023/02/10 06:01:41;;;;;;;;;;;26.00;99.90;;;;;;5011875;28;20362;-61
2023/02/10 06:04:07;;;;;;;;;;;25.90;99.90;;;;;;5011420;28;19961;-62
2023/02/10 06:06:34;;;;;;;;;;;26.00;99.90;;;;;;5011593;28;20368;-61
2023/02/10 06:09:01;;;;;;;;;;;26.00;99.90;;;;;;5011482;28;19913;-61
2023/02/10 06:11:27;;;;;;;;;;;25.90;99.90;;;;;;5011233;28;19916;-61
2023/02/10 06:13:54;;;;;;;;;;;25.80;99.90;;;;;;5011758;28;19914;-61
2023/02/10 06:16:21;;;;;;;;;;;25.90;99.90;;;;;;5011582;28;19992;-61
2023/02/10 06:18:48;;;;;;;;;;;25.90;99.90;;;;;;5011215;28;19921;-61
2023/02/10 06:21:16;;;;;;;;;;;26.00;99.90;;;;;;5010994;28;20399;-61
2023/02/10 06:23:43;;;;;;;;;;;26.00;99.90;;;;;;5011110;28;19961;-61
2023/02/10 06:26:10;;;;;;;;;;;25.90;99.90;;;;;;5010991;28;20403;-63
2023/02/10 06:28:36;;;;;;;;;;;25.70;99.90;;;;;;5011010;28;20008;-60
2023/02/10 06:31:03;;;;;;;;;;;25.70;99.90;;;;;;5010735;28;19914;-61
2023/02/10 06:33:29;;;;;;;;;;;25.70;99.90;;;;;;5010989;28;19910;-60
2023/02/10 06:35:56;;;;;;;;;;;25.60;99.90;;;;;;5011263;28;19916;-60
2023/02/10 06:38:23;;;;;;;;;;;25.60;99.90;;;;;;5011464;28;19952;-60
2023/02/10 06:40:51;;;;;;;;;;;25.50;99.90;;;;;;5010950;28;20372;-60
2023/02/10 06:43:17;;;;;;;;;;;25.50;99.90;;;;;;5010844;28;19960;-60
2023/02/10 06:45:44;;;;;;;;;;;25.50;99.90;;;;;;5012414;28;19968;-60
2023/02/10 06:48:11;;;;;;;;;;;25.60;99.90;;;;;;5011941;28;20376;-71
2023/02/10 06:50:38;;;;;;;;;;;25.70;99.90;;;;;;5011784;28;19913;-60
2023/02/10 06:53:04;;;;;;;;;;;25.70;99.90;;;;;;5017782;28;19960;-69
2023/02/10 06:55:31;;;;;;;;;;;25.50;99.90;;;;;;5013412;28;20442;-65
2023/02/10 06:58:01;;;;;;;;;;;25.50;99.90;;;;;;5014017;28;19910;-63
2023/02/10 07:00:28;;;;;;;;;;;25.40;99.90;;;;;;5016085;28;19960;-70
2023/02/10 07:02:55;;;;;;;;;;;25.30;99.90;;;;;;5017014;28;19948;-73
2023/02/10 07:05:22;;;;;;;;;;;25.30;99.90;;;;;;5015911;28;19928;-62
2023/02/10 07:07:50;;;;;;;;;;;25.30;99.90;;;;;;5007422;28;20279;-68
2023/02/10 07:10:18;;;;;;;;;;;25.30;99.90;;;;;;5008258;28;20016;-68
2023/02/10 07:12:46;;;;;;;;;;;25.30;99.90;;;;;;5011314;28;19913;-68
2023/02/10 07:15:14;;;;;;;;;;;25.30;99.90;;;;;;5012208;28;19914;-62
2023/02/10 07:17:41;;;;;;;;;;;25.20;99.90;;;;;;5006740;28;19909;-69
2023/02/10 07:20:08;;;;;;;;;;;25.00;99.90;;;;;;5005611;28;19952;-70
2023/02/10 07:22:35;;;;;;;;;;;24.90;99.90;;;;;;5005417;28;19917;-65
2023/02/10 07:25:02;;;;;;;;;;;24.90;99.90;;;;;;5004270;28;19932;-67
2023/02/10 07:27:29;;;;;;;;;;;24.90;99.90;;;;;;5004372;28;19919;-69
2023/02/10 07:29:57;;;;;;;;;;;24.80;99.90;;;;;;5003591;28;20527;-62
2023/02/10 07:32:23;;;;;;;;;;;24.70;99.90;;;;;;5004164;28;19952;-69
2023/02/10 07:34:51;;;;;;;;;;;24.80;99.90;;;;;;5004609;28;20055;-67
2023/02/10 07:37:17;;;;;;;;;;;24.80;99.90;;;;;;5003574;28;19913;-71
2023/02/10 07:39:44;;;;;;;;;;;24.80;99.90;;;;;;5003711;28;20003;-70
2023/02/10 07:42:11;;;;;;;;;;;24.70;99.90;;;;;;5004207;28;20368;-65
2023/02/10 07:44:39;;;;;;;;;;;24.70;99.90;;;;;;5004026;28;19997;-72
2023/02/10 07:47:07;;;;;;;;;;;24.70;99.90;;;;;;5004471;28;20370;-68
2023/02/10 07:49:35;;;;;;;;;;;24.60;99.90;;;;;;4985455;28;19921;-71
2023/02/10 07:52:02;;;;;;;;;;;24.70;99.90;;;;;;5003921;28;19914;-69
2023/02/10 07:54:28;;;;;;;;;;;24.60;99.90;;;;;;5003813;28;20741;-69
2023/02/10 07:56:56;;;;;;;;;;;24.60;99.90;;;;;;5004498;28;19975;-73
2023/02/10 07:59:24;;;;;;;;;;;24.60;99.90;;;;;;5003795;28;19955;-71
2023/02/10 08:01:51;;;;;;;;;;;24.60;99.90;;;;;;5003724;28;19917;-72
2023/02/10 08:04:17;;;;;;;;;;;24.60;99.90;;;;;;5003768;28;20590;-69
2023/02/10 08:06:44;;;;;;;;;;;24.60;99.90;;;;;;5004301;28;19914;-67
2023/02/10 08:09:11;;;;;;;;;;;24.50;99.90;;;;;;5004117;28;19917;-74
2023/02/10 08:11:37;;;;;;;;;;;24.50;99.90;;;;;;5003315;28;19929;-65
2023/02/10 08:14:04;;;;;;;;;;;24.50;99.90;;;;;;5003569;28;19944;-74
2023/02/10 08:16:31;;;;;;;;;;;24.40;99.90;;;;;;5003496;28;19924;-73
2023/02/10 08:18:58;;;;;;;;;;;24.40;99.90;;;;;;5003681;28;20592;-72
2023/02/10 08:21:26;;;;;;;;;;;24.40;99.90;;;;;;5003029;28;19921;-65
2023/02/10 08:23:54;;;;;;;;;;;24.30;99.90;;;;;;5003801;28;19921;-64
2023/02/10 08:26:22;;;;;;;;;;;24.30;99.90;;;;;;5003641;28;19921;-71
2023/02/10 08:28:48;;;;;;;;;;;24.30;99.90;;;;;;5002909;28;19949;-70
2023/02/10 08:31:15;;;;;;;;;;;24.30;99.90;;;;;;5002815;28;19924;-73
2023/02/10 08:33:43;;;;;;;;;;;24.30;99.90;;;;;;5009421;28;20013;-73
2023/02/10 08:36:10;;;;;;;;;;;24.30;99.90;;;;;;5011450;28;19909;-66
2023/02/10 08:38:37;;;;;;;;;;;24.30;99.90;;;;;;5011374;28;20380;-67
2023/02/10 08:41:04;;;;;;;;;;;24.20;99.90;;;;;;5011430;28;19963;-69
2023/02/10 08:43:31;;;;;;;;;;;24.20;99.90;;;;;;5011418;28;19925;-65
2023/02/10 08:45:58;;;;;;;;;;;24.20;99.90;;;;;;5011173;28;19910;-66
2023/02/10 08:48:25;;;;;;;;;;;24.10;99.90;;;;;;5011629;28;19971;-73
2023/02/10 08:50:53;;;;;;;;;;;24.20;99.90;;;;;;5013420;28;19963;-67
2023/02/10 08:53:20;;;;;;;;;;;24.20;99.90;;;;;;5014764;28;19918;-73
2023/02/10 08:55:57;;;;;;;;;;;24.10;99.90;;;;;;5014805;28;20331;-62
2023/02/10 08:58:23;;;;;;;;;;;23.90;99.90;;;;;;5014832;28;19922;-68
2023/02/10 09:00:50;;;;;;;;;;;23.80;99.90;;;;;;5007766;28;19910;-61
2023/02/10 09:03:17;;;;;;;;;;;23.70;99.90;;;;;;4994823;28;19921;-61
2023/02/10 09:05:45;;;;;;;;;;;23.60;99.90;;;;;;5010329;28;19924;-60
2023/02/10 09:08:18;;;;;;;;;;;23.50;99.90;;;;;;4995511;28;19914;-61
2023/02/10 09:10:45;;;;;;;;;;;23.50;99.90;;;;;;5021161;28;19942;-60
2023/02/10 09:13:12;;;;;;;;;;;23.50;99.90;;;;;;5014002;28;19909;-60
2023/02/10 09:15:40;;;;;;;;;;;23.50;99.90;;;;;;5013576;28;19925;-61
2023/02/10 09:18:07;;;;;;;;;;;23.50;99.90;;;;;;5014299;28;19928;-61
2023/02/10 09:20:35;;;;;;;;;;;23.50;99.90;;;;;;5006440;28;19913;-61
2023/02/10 09:23:02;;;;;;;;;;;23.50;99.90;;;;;;5005701;28;19925;-60
2023/02/10 09:25:28;;;;;;;;;;;23.50;99.90;;;;;;5005873;28;19921;-62
2023/02/10 09:27:57;;;;;;;;;;;23.50;99.90;;;;;;5005582;28;19953;-60
2023/02/10 09:30:27;;;;;;;;;;;23.50;99.90;;;;;;5004879;28;20610;-62
2023/02/10 09:32:54;;;;;;;;;;;23.50;99.90;;;;;;5005300;28;19921;-63
2023/02/10 09:35:21;;;;;;;;;;;23.50;99.90;;;;;;5005435;28;19917;-61
2023/02/10 09:37:48;;;;;;;;;;;23.50;99.90;;;;;;5005524;28;19933;-60
2023/02/10 09:40:26;;;;;;;;;;;23.50;99.90;;;;;;5005311;28;19967;-61
2023/02/10 09:43:02;;;;;;;;;;;23.50;99.90;;;;;;5006155;28;19913;-60
2023/02/10 09:45:34;;;;;;;;;;;23.40;99.90;;;;;;5004912;28;20016;-62
2023/02/10 09:48:19;;;;;;;;;;;23.50;99.90;;;;;;5005699;28;20001;-66
2023/02/10 09:51:03;;;;;;;;;;;23.40;99.90;;;;;;5005038;28;19914;-61
2023/02/10 09:53:30;;;;;;;;;;;23.40;99.90;;;;;;5005211;28;19913;-61
2023/02/10 09:55:59;;;;;;;;;;;23.40;99.90;;;;;;5005494;28;20368;-60
2023/02/10 09:58:32;;;;;;;;;;;23.40;99.90;;;;;;5004937;28;19913;-64
2023/02/10 10:01:05;;;;;;;;;;;23.40;99.90;;;;;;5004617;28;20007;-64
2023/02/10 10:03:43;;;;;;;;;;;23.30;99.90;;;;;;5004282;28;19941;-65
2023/02/10 10:06:22;;;;;;;;;;;23.40;99.90;;;;;;5004698;28;20445;-61
2023/02/10 10:09:07;;;;;;;;;;;23.30;99.90;;;;;;5005101;28;20535;-63
2023/02/10 10:11:36;;;;;;;;;;;23.30;99.90;;;;;;5004646;28;19921;-63
2023/02/10 10:14:04;;;;;;;;;;;23.30;99.90;;;;;;5004159;28;20385;-68
2023/02/10 10:17:09;;;;;;;;;;;23.20;99.90;;;;;;5004881;28;19917;-64
2023/02/10 10:19:43;;;;;;;;;;;23.20;99.90;;;;;;4961840;28;20429;-62
2023/02/10 10:22:35;;;;;;;;;;;23.10;99.90;;;;;;4963033;28;20286;-65
2023/02/10 10:25:20;;;;;;;;;;;23.10;99.90;;;;;;4984699;28;20040;-61
2023/02/10 10:28:05;;;;;;;;;;;23.00;99.90;;;;;;5004700;28;19913;-66
2023/02/10 10:30:31;;;;;;;;;;;23.00;99.90;;;;;;5004526;28;20329;-60
2023/02/10 10:33:05;;;;;;;;;;;22.90;99.90;;;;;;5004556;28;19913;-67
2023/02/10 10:35:49;;;;;;;;;;;23.00;99.90;;;;;;5004452;28;20388;-64
2023/02/10 10:38:19;;;;;;;;;;;22.90;99.90;;;;;;5003588;28;19918;-62
2023/02/10 10:40:47;;;;;;;;;;;22.90;99.90;;;;;;5004601;28;19923;-64
2023/02/10 10:43:17;;;;;;;;;;;22.90;99.90;;;;;;5003637;28;19913;-63
2023/02/10 10:45:49;;;;;;;;;;;22.90;99.90;;;;;;5004658;28;19921;-63
2023/02/10 10:48:27;;;;;;;;;;;22.90;99.90;;;;;;5005072;28;20372;-62
2023/02/10 10:50:56;;;;;;;;;;;22.90;99.90;;;;;;5009748;28;20507;-61
2023/02/10 10:53:42;;;;;;;;;;;22.90;99.90;;;;;;5011540;28;19916;-68
2023/02/10 10:56:15;;;;;;;;;;;22.90;99.90;;;;;;5011581;28;19949;-67
2023/02/10 10:58:44;;;;;;;;;;;22.90;99.90;;;;;;5010869;28;19909;-62
2023/02/10 11:01:12;;;;;;;;;;;22.80;99.90;;;;;;5011626;28;20414;-63
2023/02/10 11:03:39;;;;;;;;;;;22.90;99.90;;;;;;5011194;28;20008;-66
2023/02/10 11:06:08;;;;;;;;;;;22.90;99.90;;;;;;4991260;28;19917;-68
2023/02/10 11:08:41;;;;;;;;;;;22.90;99.90;;;;;;5009990;28;19913;-67
2023/02/10 11:11:10;;;;;;;;;;;22.80;99.90;;;;;;5025030;28;19914;-62
2023/02/10 11:13:38;;;;;;;;;;;22.80;99.90;;;;;;5008642;28;19924;-62
2023/02/10 11:16:06;;;;;;;;;;;22.80;99.90;;;;;;5010037;28;19964;-63
2023/02/10 11:18:33;;;;;;;;;;;22.80;99.90;;;;;;5009510;28;20288;-65
2023/02/10 11:21:01;;;;;;;;;;;22.80;99.90;;;;;;5010044;28;19916;-61
2023/02/10 11:23:28;;;;;;;;;;;22.80;99.90;;;;;;5010059;28;20736;-60
2023/02/10 11:25:56;;;;;;;;;;;22.80;99.90;;;;;;5009742;28;20664;-61
2023/02/10 11:28:25;;;;;;;;;;;22.80;99.90;;;;;;5009595;28;19999;-60
2023/02/10 11:31:14;;;;;;;;;;;22.80;99.90;;;;;;5010006;28;19917;-62
2023/02/10 11:33:41;;;;;;;;;;;22.70;99.90;;;;;;5002243;28;20319;-68
2023/02/10 11:36:11;;;;;;;;;;;22.80;99.90;;;;;;5010089;28;19936;-59
2023/02/10 11:38:38;;;;;;;;;;;22.70;99.90;;;;;;5009813;28;19964;-61
2023/02/10 11:41:08;;;;;;;;;;;22.80;99.90;;;;;;5009446;28;20343;-67
2023/02/10 11:43:42;;;;;;;;;;;22.70;99.90;;;;;;5008844;28;19917;-66
2023/02/10 11:46:23;;;;;;;;;;;22.80;99.90;;;;;;5009903;28;19914;-61
2023/02/10 11:48:58;;;;;;;;;;;22.80;99.90;;;;;;5009550;28;19917;-69
2023/02/10 11:51:25;;;;;;;;;;;22.80;99.90;;;;;;5009667;28;20280;-61
2023/02/10 11:53:52;;;;;;;;;;;22.80;99.90;;;;;;5009843;28;19925;-67
2023/02/10 11:56:19;;;;;;;;;;;22.80;99.90;;;;;;5008941;28;19913;-64
2023/02/10 11:59:03;;;;;;;;;;;22.80;99.90;;;;;;5009134;28;20365;-60
2023/02/10 12:01:29;;;;;;;;;;;22.80;99.90;;;;;;5009767;28;19920;-60
2023/02/10 12:04:14;;;;;;;;;;;22.80;99.90;;;;;;5009055;28;20384;-63
2023/02/10 12:06:43;;;;;;;;;;;22.90;99.90;;;;;;5009652;28;19909;-66
2023/02/10 12:09:22;;;;;;;;;;;22.90;99.90;;;;;;5009161;28;19936;-67
2023/02/10 12:12:07;;;;;;;;;;;23.00;99.90;;;;;;4989658;28;20457;-60
2023/02/10 12:14:52;;;;;;;;;;;23.00;99.90;;;;;;4990133;28;19914;-67
2023/02/10 12:17:30;;;;;;;;;;;23.00;99.90;;;;;;4989957;28;19917;-61
2023/02/10 12:20:14;;;;;;;;;;;23.00;99.90;;;;;;5002664;28;19917;-61
2023/02/10 12:23:01;;;;;;;;;;;23.00;99.90;;;;;;5005319;28;19999;-67
2023/02/10 12:25:46;;;;;;;;;;;22.90;99.90;;;;;;5005043;28;19928;-63
2023/02/10 12:28:31;;;;;;;;;;;22.90;99.90;;;;;;5007393;28;19921;-60
2023/02/10 12:31:24;;;;;;;;;;;22.90;99.90;;;;;;5007141;28;20277;-62
2023/02/10 12:34:06;;;;;;;;;;;22.90;99.90;;;;;;4982932;28;19917;-66
2023/02/10 12:36:32;;;;;;;;;;;22.90;99.90;;;;;;5006787;28;19913;-67
2023/02/10 12:39:02;;;;;;;;;;;22.80;99.90;;;;;;5006589;28;19955;-61
2023/02/10 12:41:32;;;;;;;;;;;22.80;99.90;;;;;;5006840;28;19913;-64
2023/02/10 12:44:02;;;;;;;;;;;22.80;99.90;;;;;;5006902;28;19921;-63
2023/02/10 12:46:37;;;;;;;;;;;22.80;99.90;;;;;;5006946;28;19955;-65
2023/02/10 12:49:04;;;;;;;;;;;22.80;99.90;;;;;;5012678;28;20292;-63
2023/02/10 12:51:49;;;;;;;;;;;22.80;99.90;;;;;;5014903;28;19913;-62
2023/02/10 12:54:25;;;;;;;;;;;22.80;99.90;;;;;;5015057;28;20391;-67
2023/02/10 12:56:55;;;;;;;;;;;22.80;99.90;;;;;;5015339;28;19910;-61
2023/02/10 12:59:34;;;;;;;;;;;22.80;99.90;;;;;;5014504;28;19914;-61
2023/02/10 13:02:11;;;;;;;;;;;22.70;99.90;;;;;;5014912;28;20292;-68
2023/02/10 13:04:50;;;;;;;;;;;22.80;99.90;;;;;;5014069;28;19968;-69
2023/02/10 13:07:19;;;;;;;;;;;22.80;99.90;;;;;;5014726;28;19916;-66
2023/02/10 13:10:06;;;;;;;;;;;22.80;99.90;;;;;;5014552;28;19953;-62
2023/02/10 13:12:41;;;;;;;;;;;22.80;99.90;;;;;;5015291;28;19963;-66
2023/02/10 13:15:26;;;;;;;;;;;22.70;99.90;;;;;;5014782;28;19952;-62
2023/02/10 13:17:53;;;;;;;;;;;22.70;99.90;;;;;;5013904;28;19913;-62
2023/02/10 13:20:27;;;;;;;;;;;22.70;99.90;;;;;;5013640;28;20043;-68
2023/02/10 13:22:54;;;;;;;;;;;22.70;99.90;;;;;;5014436;28;19913;-70
2023/02/10 13:25:27;;;;;;;;;;;22.70;99.90;;;;;;5013411;28;19925;-65
2023/02/10 13:28:17;;;;;;;;;;;22.70;99.90;;;;;;5014436;28;19914;-66
2023/02/10 13:31:04;;;;;;;;;;;22.70;99.90;;;;;;5014590;28;19960;-68
2023/02/10 13:33:30;;;;;;;;;;;22.70;99.90;;;;;;5014010;28;19910;-67
2023/02/10 13:35:59;;;;;;;;;;;22.80;99.90;;;;;;5014156;28;19909;-64
2023/02/10 13:38:31;;;;;;;;;;;22.80;99.90;;;;;;5014135;28;20744;-63
2023/02/10 13:43:46;;;;;;;;;;;22.80;99.90;;;;;;4973392;28;19997;-67
2023/02/10 13:46:30;;;;;;;;;;;22.80;99.90;;;;;;5014556;28;19909;-65
2023/02/10 13:48:58;;;;;;;;;;;22.70;99.90;;;;;;5013662;28;20060;-69
2023/02/10 13:51:29;;;;;;;;;;;22.70;99.90;;;;;;5013648;28;20375;-65
2023/02/10 13:53:56;;;;;;;;;;;22.70;99.90;;;;;;5014099;28;20000;-60
2023/02/10 13:56:23;;;;;;;;;;;22.70;99.90;;;;;;5013051;28;19924;-63
2023/02/10 13:58:49;;;;;;;;;;;22.70;99.90;;;;;;5013599;28;20304;-68
2023/02/10 14:01:31;;;;;;;;;;;22.70;99.90;;;;;;5013725;28;19923;-68
2023/02/10 14:03:58;;;;;;;;;;;22.60;99.90;;;;;;5013521;28;19925;-63
2023/02/10 14:06:53;;;;;;;;;;;22.60;99.90;;;;;;5013650;28;20438;-64
2023/02/10 14:09:29;;;;;;;;;;;22.50;99.90;;;;;;4999518;28;20000;-62
2023/02/10 14:11:59;;;;;;;;;;;22.50;99.90;;;;;;4994265;28;19917;-63
2023/02/10 14:14:32;;;;;;;;;;;22.50;99.90;;;;;;4993902;28;19913;-59
2023/02/10 14:17:24;;;;;;;;;;;22.40;99.90;;;;;;4994083;28;19914;-66
2023/02/10 14:19:51;;;;;;;;;;;22.40;99.90;;;;;;4986468;28;19914;-68
2023/02/10 14:22:24;;;;;;;;;;;22.40;99.90;;;;;;4993746;28;19992;-71
2023/02/10 14:24:51;;;;;;;;;;;22.40;99.90;;;;;;5000020;28;19925;-70
2023/02/10 14:27:18;;;;;;;;;;;22.40;99.90;;;;;;5012267;28;19921;-61
2023/02/10 14:29:50;;;;;;;;;;;22.40;99.90;;;;;;5012853;28;19913;-71
2023/02/10 14:32:18;;;;;;;;;;;22.40;99.90;;;;;;5013318;28;19921;-66
2023/02/10 14:34:58;;;;;;;;;;;22.40;99.90;;;;;;5013109;28;19909;-66